TAF and METAR

Decoding for American and Canadian METARs and TAFs is not fully implemented.

Could not understand the following METAR

CYUS 180000Z AUTO 26004KT 220V280 ////SM //// OVC014 M19/M22 A2965
No TAF available for Shepherd Bay Arp